Historique des stations

Station météo de Luçay-le-Libre

Altitude de la station : 138 m







Données météorologiques pour le 28/09/2021
Date
Heure
Températures Humidité Point de rosée Vitesse
du vent
Direction Rafales Windchill Pression Pluviométrie
Cumul
Date
Heure
Températures Humidité Point de rosée Vitesse
du vent
Direction Rafales Windchill Pression Pluviométrie
Cumul
28/09/2021 18:2918.2 °C60 %10.0 °C-SE11 km/h18.3 1020 hPa-
28/09/2021 18:1419.9 °C55 %10.6 °C-SSE11 km/h20.0 1020 hPa-
28/09/2021 17:5919.9 °C55 %10.6 °C3 km/hS11 km/h20.0 1020 hPa-
28/09/2021 17:4419.3 °C56 %10.0 °C2 km/hSE11 km/h19.4 1020 hPa-
28/09/2021 17:2919.3 °C59 %11.1 °C2 km/hSE11 km/h19.4 1020 hPa-
28/09/2021 17:1419.3 °C56 %10.0 °C-SE11 km/h19.4 1020 hPa-
28/09/2021 16:5919.1 °C57 %10.0 °C-S11 km/h18.9 1020 hPa-
28/09/2021 16:4519.4 °C57 %10.6 °C2 km/hSE11 km/h19.4 1020 hPa-
28/09/2021 16:3018.9 °C60 %11.1 °C3 km/hSE11 km/h18.9 1020 hPa-
28/09/2021 16:1518.9 °C58 %10.6 °C-SSE11 km/h18.9 1020 hPa-
28/09/2021 16:0019.2 °C61 %11.1 °C-S11 km/h19.4 1021 hPa-
28/09/2021 15:4519.4 °C59 %11.1 °C-SE11 km/h19.4 1021 hPa-
28/09/2021 15:3019.4 °C60 %11.1 °C5 km/hSE11 km/h19.4 1021 hPa-
28/09/2021 15:1419.2 °C60 %11.1 °C2 km/hSSE11 km/h19.4 1021 hPa-
28/09/2021 14:5919.1 °C61 %11.1 °C-SSE11 km/h18.9 1021 hPa-
28/09/2021 14:4418.4 °C62 %11.1 °C2 km/hS11 km/h18.3 1021 hPa-
28/09/2021 14:2918.1 °C65 %11.1 °C3 km/hSE11 km/h18.3 1022 hPa-
28/09/2021 14:1418.3 °C63 %11.1 °C2 km/hSE11 km/h18.3 1022 hPa-
28/09/2021 13:5918.7 °C62 %11.1 °C-S11 km/h18.9 1022 hPa-
28/09/2021 13:4418.3 °C65 %11.7 °C-SE11 km/h18.3 1023 hPa-
28/09/2021 13:2918.0 °C67 %11.7 °C-SSE11 km/h17.8 1023 hPa-
28/09/2021 13:1417.7 °C69 %11.7 °C2 km/hSE11 km/h17.8 1023 hPa-
28/09/2021 12:5917.5 °C69 %11.7 °C2 km/hSE11 km/h17.8 1023 hPa-
28/09/2021 12:4416.8 °C72 %11.7 °C3 km/hSE10 km/h16.7 1023 hPa-
28/09/2021 12:3016.4 °C71 %11.1 °C6 km/hESE10 km/h16.7 1023 hPa-
28/09/2021 12:1516.1 °C74 %11.7 °C2 km/hSSE8 km/h16.1 1023 hPa-
28/09/2021 12:0015.6 °C77 %11.7 °C-SE8 km/h15.6 1024 hPa-
28/09/2021 11:4515.3 °C79 %11.7 °C3 km/hSE8 km/h15.6 1024 hPa-
28/09/2021 11:3014.9 °C80 %11.7 °C-SE8 km/h15.0 1024 hPa-
28/09/2021 11:1414.5 °C79 %11.1 °C2 km/hSE8 km/h14.4 1024 hPa-
28/09/2021 10:5914.4 °C82 %11.1 °C5 km/hSE8 km/h14.4 1024 hPa-
28/09/2021 10:4414.5 °C83 %11.7 °C-SE8 km/h14.4 1024 hPa-
28/09/2021 10:2913.5 °C89 %11.7 °C-SSE8 km/h13.3 1024 hPa-
28/09/2021 10:1412.5 °C90 %11.1 °C-SSE8 km/h12.8 1024 hPa-
28/09/2021 09:5911.7 °C91 %10.6 °C-SSE8 km/h11.7 1024 hPa-
28/09/2021 09:4411.6 °C92 %10.6 °C2 km/hS8 km/h11.7 1024 hPa-
28/09/2021 09:2910.6 °C93 %9.4 °C-SSE8 km/h10.6 1024 hPa-
28/09/2021 09:1410.1 °C94 %9.4 °C-SE8 km/h10.0 1024 hPa-
28/09/2021 08:599.4 °C95 %8.9 °C-SE8 km/h9.4 1024 hPa-
28/09/2021 08:448.2 °C94 %7.2 °C-SE8 km/h8.3 1024 hPa-
28/09/2021 08:297.6 °C94 %6.7 °C-SSE8 km/h7.8 1024 hPa-
28/09/2021 08:147.6 °C94 %6.7 °C-SSE8 km/h7.8 1024 hPa-
28/09/2021 07:597.6 °C94 %6.7 °C-SSE8 km/h7.8 1024 hPa-
28/09/2021 07:447.2 °C94 %6.1 °C-SSE8 km/h7.2 1024 hPa-
28/09/2021 07:307.6 °C93 %6.7 °C-SSE8 km/h7.8 1024 hPa-
28/09/2021 07:157.7 °C93 %6.7 °C-SSE8 km/h7.8 1024 hPa-
28/09/2021 07:008.0 °C93 %7.2 °C-SSE8 km/h7.8 1024 hPa-
28/09/2021 06:458.1 °C94 %7.2 °C-SSE8 km/h8.3 1024 hPa-
28/09/2021 06:308.2 °C92 %7.2 °C-SSE8 km/h8.3 1024 hPa-
28/09/2021 06:158.3 °C93 %7.2 °C-SSE8 km/h8.3 1024 hPa-
28/09/2021 06:008.4 °C92 %7.2 °C-SE8 km/h8.3 1024 hPa-
28/09/2021 05:448.7 °C93 %7.8 °C-SE8 km/h8.9 1024 hPa-
28/09/2021 05:298.1 °C92 %6.7 °C-SE8 km/h8.3 1024 hPa-
28/09/2021 05:148.5 °C92 %7.2 °C-SE8 km/h8.3 1024 hPa-
28/09/2021 04:598.7 °C92 %7.2 °C-SE8 km/h8.9 1024 hPa-
28/09/2021 04:448.9 °C91 %7.8 °C-SE8 km/h8.9 1024 hPa-
28/09/2021 04:299.3 °C90 %7.8 °C-SE8 km/h9.4 1025 hPa-
28/09/2021 04:149.7 °C90 %8.3 °C-SE8 km/h9.4 1025 hPa-
28/09/2021 03:599.8 °C89 %8.3 °C-SE8 km/h10.0 1025 hPa-
28/09/2021 03:449.8 °C90 %8.3 °C-SE8 km/h10.0 1025 hPa-
28/09/2021 03:299.6 °C90 %8.3 °C-SE8 km/h9.4 1025 hPa-
28/09/2021 03:149.2 °C91 %7.8 °C-SE8 km/h9.4 1025 hPa-
28/09/2021 02:599.5 °C89 %7.8 °C-SE8 km/h9.4 1025 hPa-
28/09/2021 02:449.6 °C90 %8.3 °C-SE8 km/h9.4 1025 hPa-
28/09/2021 02:299.9 °C89 %8.3 °C-SE8 km/h10.0 1025 hPa-
28/09/2021 02:1510.4 °C87 %8.3 °C-SE8 km/h10.6 1025 hPa-
28/09/2021 02:0011.1 °C85 %8.9 °C-SSE8 km/h11.1 1025 hPa-
28/09/2021 01:4511.9 °C82 %8.9 °C-S8 km/h11.7 1025 hPa-
28/09/2021 01:3012.3 °C81 %8.9 °C-S8 km/h12.2 1025 hPa-
28/09/2021 01:1512.4 °C81 %9.4 °C-SSE8 km/h12.2 1025 hPa-
28/09/2021 00:5912.6 °C81 %9.4 °C2 km/hSSE8 km/h12.8 1025 hPa-
28/09/2021 00:4412.7 °C81 %9.4 °C-SE8 km/h12.8 1025 hPa-
28/09/2021 00:2912.3 °C82 %9.4 °C-SE8 km/h12.2 1025 hPa-
28/09/2021 00:1413.1 °C79 %9.4 °C3 km/hSE5 km/h13.3 1025 hPa-


Minima :

Température : 7.2 °C
Humidité : 55 %
Point de rosée : 6.1 °C
Vent moyen : 2 km/h
Windchill : 7.2
Pression atm. : 1020 hPa
Maxima :

Température : 19.9 °C
Humidité : 95 %
Point de rosée : 11.7 °C
Vent moyen : 6 km/h
Windchill : 20.0
Pression atm. : 1025 hPa
Rafales max : 11 km/h
Cumul de pluie sur 24H : 0 mm

Luçay-le-Libre est une commune du département Indre (36).
La station météorologique du réseau de l'association la plus proche de Luçay-le-Libre est celle de Graçay



Icône Facebook Association Météo Centre Icône Twitter Association Météo Centre Icône Chaîne Youtube Association Météo Centre Icône contact Association Météo Centre Icône Insta Association Météo Centre